Forside
METAR-TAF:

METAR-TAF

Lufthavne :

Milwaukee, Wisconsin, USA

Breddekreds: 42-57-18N, længdekreds: 087-54-16W, højde: 220 m

Aktuelle vejr

Denne rapport blev lavet for 32 minutter siden, kl. 20:52 UTC
Vind 8 kt fra vest
Temperatur 2°C
Fugtighed 75%
Tryk 1011 hPa
Sigt: 16.1 km
Overskyet i en højde af 1100 ft

METAR: KMKE 262052Z 27008KT 10SM OVC011 02/M02 A2985 RMK AO2 SLP115 T00171022 56007 $

Tid: 15:24 (21:24 UTC)

Vejrudsigter

Denne rapport blev lavet for 3 timer og 52 minutter siden, kl. 17:32 UTC
Foreløbig gælder fra 26 på 18 UTC til 27 på 24 UTC
Vind 9 kt fra vest
Sigt: 10 km
Overskyet i en højde af 1000 ft
Fra 27 på 0500 UTC
Vind 5 kt fra vestnordvest
Sigt: 10 km
Overskyet i en højde af 1300 ft
Fra 27 på 1200 UTC
Vind 5 kt fra nordnordvest
Sigt: 10 km
Overskyet i en højde af 1100 ft

TAF: KMKE 261732Z 2618/2724 28009KT P6SM OVC010 FM270500 30005KT P6SM OVC013 FM271200 33005KT P6SM OVC011

Vejrobservationer og prognoser fra mere end 4000 lufthavne (METAR og TAF).

De gule og røde prikker repræsenterer de meteorologiske stationer.

Flyt musen over at se navnet på stationen.

Så klik over at se vejr observationer og prognoser.

At skifte det kort: Klik på de grønne knapper med et sort kors for at zoome ind; på den grønne knap med en bindestreg for at zoome ud; eller på de grønne pile for tilstødende kort.


METAR-TAF: